Time;durP1;ratioP1;P1;durP2;ratioP2;P2;SDS_P1;SDS_P2;PMS_P1;PMS_P2;Temp;Humidity;BMP_temperature;BMP_pressure;BME280_temperature;BME280_humidity;BME280_pressure;Samples;Min_cycle;Max_cycle;Signal;HPM_P1;HPM_P2
2023/03/04 00:00:26;;;;;;;70.13;26.65;;;;;;;-1.89;100.00;101228.97;6208967;23;20414;-73
2023/03/04 00:02:52;;;;;;;62.38;26.75;;;;;;;-1.96;100.00;101226.66;6209453;23;20021;-72
2023/03/04 00:05:19;;;;;;;60.22;26.05;;;;;;;-1.96;100.00;101227.50;6209940;23;20434;-72
2023/03/04 00:07:45;;;;;;;69.60;28.02;;;;;;;-1.98;100.00;101233.78;6209477;23;20025;-72
2023/03/04 00:10:12;;;;;;;65.78;29.92;;;;;;;-1.99;100.00;101226.78;6208667;23;20027;-72
2023/03/04 00:12:38;;;;;;;72.13;29.33;;;;;;;-1.97;100.00;101230.22;6209771;23;20111;-72
2023/03/04 00:15:05;;;;;;;68.68;28.02;;;;;;;-1.99;100.00;101222.41;6208158;23;20020;-72
2023/03/04 00:17:32;;;;;;;64.10;27.35;;;;;;;-1.97;100.00;101228.44;6210201;23;20457;-72
2023/03/04 00:19:58;;;;;;;56.35;25.48;;;;;;;-1.90;100.00;101216.72;6210988;23;20020;-75
2023/03/04 00:22:25;;;;;;;62.75;27.02;;;;;;;-1.92;100.00;101223.00;6212512;23;20048;-72
2023/03/04 00:24:51;;;;;;;59.20;26.88;;;;;;;-1.90;100.00;101214.09;6202038;23;20028;-73
2023/03/04 00:27:18;;;;;;;74.90;26.15;;;;;;;-1.90;100.00;101203.56;6209580;23;20468;-72
2023/03/04 00:29:44;;;;;;;69.88;27.95;;;;;;;-1.93;100.00;101203.72;6210572;23;20030;-72
2023/03/04 00:32:11;;;;;;;67.10;27.85;;;;;;;-1.77;100.00;101189.88;6209682;23;20028;-72
2023/03/04 00:34:39;;;;;;;69.63;28.05;;;;;;;-1.75;100.00;101193.28;6206528;23;20446;-72
2023/03/04 00:37:05;;;;;;;68.32;27.80;;;;;;;-1.78;100.00;101196.03;6208070;23;20020;-72
2023/03/04 00:39:32;;;;;;;59.80;25.60;;;;;;;-1.73;100.00;101201.97;6208935;23;20021;-72
2023/03/04 00:41:58;;;;;;;62.50;26.17;;;;;;;-1.69;100.00;101204.38;6210956;23;20438;-72
2023/03/04 00:44:25;;;;;;;62.80;24.67;;;;;;;-1.69;100.00;101214.06;6201468;23;20027;-73
2023/03/04 00:46:51;;;;;;;62.33;25.40;;;;;;;-1.66;100.00;101203.41;6210435;23;20020;-73
2023/03/04 00:49:18;;;;;;;65.07;25.23;;;;;;;-1.66;100.00;101200.78;6209959;23;20096;-73
2023/03/04 00:51:44;;;;;;;61.75;25.00;;;;;;;-1.65;100.00;101199.84;6209652;23;20412;-73
2023/03/04 00:54:11;;;;;;;61.83;24.20;;;;;;;-1.63;100.00;101200.63;6208889;23;20111;-73
2023/03/04 00:56:37;;;;;;;57.60;23.25;;;;;;;-1.60;100.00;101189.97;6209667;23;20091;-73
2023/03/04 00:59:06;;;;;;;57.80;22.70;;;;;;;-1.56;100.00;101188.91;6211583;23;20036;-72
2023/03/04 01:01:33;;;;;;;54.90;23.98;;;;;;;-1.60;100.00;101191.75;6208145;23;20032;-73
2023/03/04 01:03:59;;;;;;;57.78;23.00;;;;;;;-1.62;100.00;101194.44;6210338;23;20017;-71
2023/03/04 01:06:26;;;;;;;61.80;23.48;;;;;;;-1.60;100.00;101187.34;6210947;23;20025;-71
2023/03/04 01:08:52;;;;;;;51.75;21.25;;;;;;;-1.63;100.00;101179.59;6209828;23;20048;-72
2023/03/04 01:11:19;;;;;;;57.42;23.02;;;;;;;-1.56;100.00;101190.69;6209178;23;20497;-72
2023/03/04 01:13:45;;;;;;;70.28;21.83;;;;;;;-1.65;100.00;101184.91;6209615;23;20092;-72
2023/03/04 01:16:12;;;;;;;56.45;21.75;;;;;;;-1.61;100.00;101177.75;6210551;23;20027;-72
2023/03/04 01:18:39;;;;;;;57.97;20.58;;;;;;;-1.63;100.00;101169.06;6196295;23;20392;-72
2023/03/04 01:21:05;;;;;;;63.65;20.73;;;;;;;-1.61;100.00;101177.75;6209183;23;20024;-72
2023/03/04 01:23:32;;;;;;;61.92;21.10;;;;;;;-1.56;100.00;101174.91;6208503;23;20016;-72
2023/03/04 01:25:58;;;;;;;56.97;20.10;;;;;;;-1.60;100.00;101166.28;6209593;23;20096;-71
2023/03/04 01:28:25;;;;;;;55.72;19.65;;;;;;;-1.57;100.00;101171.41;6210289;23;20350;-72
2023/03/04 01:30:51;;;;;;;61.08;18.52;;;;;;;-1.52;100.00;101160.66;6207991;23;20541;-72
2023/03/04 01:33:18;;;;;;;63.03;20.58;;;;;;;-1.48;100.00;101157.81;6209100;23;20100;-71
2023/03/04 01:35:44;;;;;;;58.10;18.65;;;;;;;-1.48;100.00;101155.19;6208934;23;20413;-72
2023/03/04 01:38:12;;;;;;;48.75;18.25;;;;;;;-1.52;100.00;101147.50;6208720;23;20039;-71
2023/03/04 01:40:38;;;;;;;58.60;17.95;;;;;;;-1.54;100.00;101152.84;6208954;23;20376;-72
2023/03/04 01:43:06;;;;;;;45.53;17.35;;;;;;;-1.49;100.00;101153.47;6209567;23;20027;-71
2023/03/04 01:45:34;;;;;;;47.70;17.00;;;;;;;-1.43;100.00;101147.94;6208927;23;20493;-71
2023/03/04 01:48:01;;;;;;;60.25;17.38;;;;;;;-1.42;100.00;101143.53;6208524;23;20414;-72
2023/03/04 01:50:34;;;;;;;55.33;16.15;;;;;;;-1.38;100.00;101145.91;6209020;23;20016;-71
2023/03/04 01:53:02;;;;;;;60.80;17.23;;;;;;;-1.36;100.00;101134.50;6208743;23;20016;-72
2023/03/04 01:55:30;;;;;;;52.67;14.98;;;;;;;-1.33;100.00;101139.59;6199285;23;20088;-72
2023/03/04 01:57:57;;;;;;;54.88;15.85;;;;;;;-1.34;100.00;101136.09;6209976;23;20142;-72
2023/03/04 02:00:32;;;;;;;43.55;14.43;;;;;;;-1.34;100.00;101127.34;6209917;23;20027;-72
2023/03/04 02:03:03;;;;;;;51.33;14.20;;;;;;;-1.36;100.00;101126.59;6210639;23;20083;-72
2023/03/04 02:09:08;;;;;;;57.22;14.80;;;;;;;-1.38;100.00;101124.03;6200855;22;20028;-72
2023/03/04 02:11:37;;;;;;;43.83;12.50;;;;;;;-1.35;100.00;101117.75;6209985;23;20017;-76
2023/03/04 02:14:05;;;;;;;54.17;13.73;;;;;;;-1.25;100.00;101116.41;6210798;23;20024;-70
2023/03/04 02:16:31;;;;;;;42.25;11.73;;;;;;;-1.21;100.00;101121.44;6209979;23;20024;-72
2023/03/04 02:18:59;;;;;;;44.28;12.32;;;;;;;-1.20;100.00;101119.63;6210731;23;20027;-72
2023/03/04 02:21:28;;;;;;;49.90;12.32;;;;;;;-1.15;100.00;101115.03;6210202;23;20021;-71
2023/03/04 02:24:10;;;;;;;42.15;11.18;;;;;;;-1.15;100.00;101109.75;6211195;23;20107;-71
2023/03/04 02:26:40;;;;;;;50.17;11.52;;;;;;;-1.14;100.00;101114.94;6208373;23;20013;-72
2023/03/04 02:29:09;;;;;;;46.58;11.73;;;;;;;-1.14;100.00;101108.81;6209982;23;20024;-71
2023/03/04 02:31:48;;;;;;;43.38;11.55;;;;;;;-1.06;100.00;101104.00;6210129;23;20024;-72
2023/03/04 02:34:21;;;;;;;44.97;13.07;;;;;;;-1.11;100.00;101095.50;6210647;23;20095;-72
2023/03/04 02:36:50;;;;;;;50.80;13.55;;;;;;;-1.04;100.00;101098.69;6208768;23;20020;-72
2023/03/04 02:39:19;;;;;;;43.90;11.40;;;;;;;-1.06;100.00;101090.00;6211127;23;20020;-73
2023/03/04 02:41:54;;;;;;;41.85;11.48;;;;;;;-1.01;100.00;101080.94;6209231;23;20090;-73
2023/03/04 02:44:24;;;;;;;37.53;12.48;;;;;;;-1.03;100.00;101076.69;6195329;23;20032;-72
2023/03/04 02:46:52;;;;;;;45.38;12.07;;;;;;;-0.94;100.00;101084.13;6209737;23;20453;-72
2023/03/04 02:49:19;;;;;;;40.75;11.52;;;;;;;-0.98;100.00;101078.16;6210043;23;20052;-72
2023/03/04 02:51:46;;;;;;;44.03;12.27;;;;;;;-0.91;100.00;101071.66;6210542;23;20107;-72
2023/03/04 02:54:17;;;;;;;53.17;11.68;;;;;;;-1.01;100.00;101059.03;6209724;23;20020;-72
2023/03/04 02:56:51;;;;;;;42.92;10.05;;;;;;;-0.98;100.00;101062.38;6210272;23;20100;-73
2023/03/04 02:59:19;;;;;;;40.17;11.18;;;;;;;-0.88;100.00;101064.50;6212246;23;20462;-73
2023/03/04 03:01:45;;;;;;;50.10;11.40;;;;;;;-0.93;100.00;101073.50;6212694;23;20607;-72
2023/03/04 03:04:12;;;;;;;36.75;10.57;;;;;;;-0.88;100.00;101070.66;6211366;23;20412;-73
2023/03/04 03:06:39;;;;;;;30.80;10.05;;;;;;;-0.92;100.00;101064.69;6212475;23;20028;-72
2023/03/04 03:09:06;;;;;;;32.70;10.85;;;;;;;-0.96;100.00;101067.53;6211717;23;20080;-72
2023/03/04 03:11:33;;;;;;;37.90;10.93;;;;;;;-0.88;100.00;101064.50;6212496;23;20027;-72
2023/03/04 03:14:00;;;;;;;47.00;11.05;;;;;;;-0.85;100.00;101072.25;6212748;23;20038;-72
2023/03/04 03:16:27;;;;;;;48.05;11.95;;;;;;;-0.94;100.00;101063.91;6213114;23;20350;-72
2023/03/04 03:18:53;;;;;;;48.28;10.75;;;;;;;-0.87;100.00;101066.25;6211361;23;20048;-72
2023/03/04 03:21:20;;;;;;;46.45;12.00;;;;;;;-0.90;100.00;101068.09;6212430;23;22009;-72
2023/03/04 03:23:46;;;;;;;45.28;10.80;;;;;;;-0.76;100.00;101063.91;6211281;23;20072;-73
2023/03/04 03:26:13;;;;;;;42.58;10.60;;;;;;;-0.83;100.00;101065.16;6205467;23;20032;-72
2023/03/04 03:28:39;;;;;;;45.30;11.15;;;;;;;-0.83;100.00;101060.72;6208153;23;20096;-72
2023/03/04 03:31:06;;;;;;;35.33;10.00;;;;;;;-0.91;100.00;101063.75;6211758;23;20024;-72
2023/03/04 03:33:32;;;;;;;38.70;9.70;;;;;;;-0.79;100.00;101061.41;6211340;23;20099;-72
2023/03/04 03:35:59;;;;;;;39.75;9.65;;;;;;;-0.81;100.00;101063.31;6212911;23;20013;-72
2023/03/04 03:38:26;;;;;;;42.20;10.52;;;;;;;-0.81;100.00;101058.03;6201534;23;20159;-72
2023/03/04 03:40:53;;;;;;;47.30;10.02;;;;;;;-0.88;100.00;101057.50;6212084;23;20446;-73
2023/03/04 03:43:19;;;;;;;46.47;9.00;;;;;;;-0.81;100.00;101052.75;6212040;23;20028;-72
2023/03/04 03:45:45;;;;;;;46.50;10.30;;;;;;;-0.91;100.00;101050.59;6211892;23;20024;-72
2023/03/04 03:48:12;;;;;;;40.17;11.32;;;;;;;-0.79;100.00;101043.81;6212131;23;20024;-71
2023/03/04 03:50:39;;;;;;;38.03;8.88;;;;;;;-0.87;100.00;101045.16;6212097;23;20034;-72
2023/03/04 03:53:05;;;;;;;36.20;10.48;;;;;;;-0.86;100.00;101039.81;6212091;23;20034;-71
2023/03/04 03:55:32;;;;;;;40.17;10.23;;;;;;;-0.91;100.00;101032.16;6211748;23;20454;-72
2023/03/04 03:57:58;;;;;;;44.83;10.18;;;;;;;-0.93;100.00;101039.28;6213661;23;20016;-72
2023/03/04 04:00:25;;;;;;;36.22;8.57;;;;;;;-0.85;100.00;101022.22;6213076;23;20027;-72
2023/03/04 04:02:54;;;;;;;39.20;9.73;;;;;;;-0.79;100.00;101020.13;6211886;23;20016;-72
2023/03/04 04:05:20;;;;;;;45.03;9.23;;;;;;;-0.76;100.00;101027.03;6211306;23;20354;-72
2023/03/04 04:07:47;;;;;;;47.58;10.63;;;;;;;-0.72;100.00;101028.56;6211790;23;20525;-72
2023/03/04 04:10:13;;;;;;;37.33;9.32;;;;;;;-0.85;100.00;101022.22;6212264;23;20073;-71
2023/03/04 04:12:40;;;;;;;44.40;9.70;;;;;;;-0.83;100.00;101020.38;6210259;23;20410;-74
2023/03/04 04:15:08;;;;;;;35.22;9.82;;;;;;;-0.79;100.00;101021.91;6211447;23;20021;-74
2023/03/04 04:17:35;;;;;;;39.63;9.65;;;;;;;-0.74;100.00;101022.53;6212282;23;20020;-73
2023/03/04 04:20:02;;;;;;;46.63;8.68;;;;;;;-0.75;100.00;101023.44;6210916;23;20024;-73
2023/03/04 04:22:28;;;;;;;30.58;7.88;;;;;;;-0.72;100.00;101018.03;6211689;23;20017;-73
2023/03/04 04:24:55;;;;;;;38.40;9.23;;;;;;;-0.67;100.00;101013.38;6211764;23;20112;-73
2023/03/04 04:27:21;;;;;;;29.90;8.05;;;;;;;-0.73;100.00;101022.44;6211357;23;20540;-73
2023/03/04 04:29:48;;;;;;;48.50;10.50;;;;;;;-0.62;100.00;101019.25;6210691;23;20019;-74
2023/03/04 04:32:14;;;;;;;49.67;9.63;;;;;;;-0.69;100.00;101020.50;6210238;23;20028;-74
2023/03/04 04:34:41;;;;;;;39.92;8.40;;;;;;;-0.69;100.00;101013.44;6211189;23;20078;-73
2023/03/04 04:37:07;;;;;;;47.22;8.70;;;;;;;-0.66;100.00;101010.66;6211201;23;20023;-73
2023/03/04 04:39:34;;;;;;;32.35;9.20;;;;;;;-0.70;100.00;101005.63;6211431;23;20016;-75
2023/03/04 04:42:02;;;;;;;43.92;9.25;;;;;;;-0.71;100.00;101009.16;6211513;23;20386;-75
2023/03/04 04:44:28;;;;;;;32.00;7.30;;;;;;;-0.60;100.00;101006.00;6205866;23;20012;-74
2023/03/04 04:46:55;;;;;;;38.83;8.07;;;;;;;-0.61;100.00;101006.91;6211444;23;20021;-73
2023/03/04 04:49:21;;;;;;;31.80;8.35;;;;;;;-0.73;100.00;101000.53;6211854;23;20024;-75
2023/03/04 04:51:48;;;;;;;40.30;7.60;;;;;;;-0.67;100.00;101003.69;6210418;23;20024;-75
2023/03/04 04:54:14;;;;;;;31.67;8.07;;;;;;;-0.66;100.00;101008.00;6211498;23;20059;-74
2023/03/04 04:56:41;;;;;;;49.83;8.95;;;;;;;-0.55;100.00;100994.25;6211804;23;20024;-73
2023/03/04 04:59:07;;;;;;;31.48;7.72;;;;;;;-0.60;100.00;100992.81;6210316;23;20035;-73
2023/03/04 05:01:34;;;;;;;24.48;7.55;;;;;;;-0.63;100.00;100991.19;6211021;23;20089;-74
2023/03/04 05:04:01;;;;;;;34.97;7.13;;;;;;;-0.62;100.00;100990.25;6212179;23;20348;-74
2023/03/04 05:06:27;;;;;;;29.58;7.18;;;;;;;-0.51;100.00;100989.69;6212246;23;20020;-74
2023/03/04 05:08:54;;;;;;;40.22;7.07;;;;;;;-0.47;100.00;100985.94;6211193;23;20099;-73
2023/03/04 05:11:21;;;;;;;24.90;6.65;;;;;;;-0.50;100.00;100992.25;6209290;23;20035;-73
2023/03/04 05:13:48;;;;;;;46.92;7.30;;;;;;;-0.50;100.00;100986.97;6210943;23;20073;-74
2023/03/04 05:16:16;;;;;;;28.58;6.32;;;;;;;-0.47;100.00;100985.94;6210501;23;20020;-74
2023/03/04 05:18:43;;;;;;;35.28;6.85;;;;;;;-0.58;100.00;100986.50;6211369;23;20365;-73
2023/03/04 05:21:10;;;;;;;34.78;6.45;;;;;;;-0.53;100.00;100988.94;6211413;23;20032;-75
2023/03/04 05:23:39;;;;;;;23.35;5.80;;;;;;;-0.50;100.00;100994.03;6211115;23;20026;-74
2023/03/04 05:26:08;;;;;;;22.77;5.72;;;;;;;-0.42;100.00;100995.31;6209700;23;20021;-74
2023/03/04 05:28:35;;;;;;;26.65;5.82;;;;;;;-0.39;100.00;100990.81;6210180;23;20021;-74
2023/03/04 05:31:01;;;;;;;25.55;5.72;;;;;;;-0.51;100.00;100990.53;6210908;23;20349;-74
2023/03/04 05:33:28;;;;;;;29.70;5.47;;;;;;;-0.42;100.00;100982.13;6211110;23;20025;-73
2023/03/04 05:35:55;;;;;;;25.55;5.35;;;;;;;-0.49;100.00;100986.03;6209927;23;20037;-74
2023/03/04 05:38:22;;;;;;;36.22;5.30;;;;;;;-0.51;100.00;100976.50;6210417;23;20047;-73
2023/03/04 05:40:54;;;;;;;29.45;5.60;;;;;;;-0.36;100.00;100978.31;6211032;23;20020;-75
2023/03/04 05:43:21;;;;;;;;;;;;;;;-0.35;100.00;100981.81;6211198;23;20020;-74
2023/03/04 05:45:48;;;;;;;26.40;5.20;;;;;;;-0.42;100.00;100986.56;6211072;23;19922;-74
2023/03/04 05:48:15;;;;;;;21.33;5.72;;;;;;;-0.47;100.00;100978.91;6210392;23;20696;-75
2023/03/04 05:50:41;;;;;;;35.08;4.75;;;;;;;-0.43;100.00;100977.81;6209888;23;20025;-73
2023/03/04 05:53:08;;;;;;;32.38;5.57;;;;;;;-0.33;100.00;100970.25;6210896;23;20509;-74
2023/03/04 05:55:34;;;;;;;26.65;4.90;;;;;;;-0.34;100.00;100975.59;6210380;23;20020;-74
2023/03/04 05:58:01;;;;;;;21.88;4.68;;;;;;;-0.29;100.00;100979.69;6210260;23;20356;-74
2023/03/04 06:00:27;;;;;;;22.65;4.93;;;;;;;-0.31;100.00;100978.06;6210207;23;20023;-74
2023/03/04 06:02:54;;;;;;;22.98;4.60;;;;;;;-0.34;100.00;100978.22;6210633;23;20020;-74
2023/03/04 06:05:21;;;;;;;25.45;4.78;;;;;;;-0.37;100.00;100973.13;6210453;23;20024;-74
2023/03/04 06:07:47;;;;;;;24.45;5.35;;;;;;;-0.33;100.00;100977.28;6209429;23;20031;-74
2023/03/04 06:10:16;;;;;;;24.98;4.75;;;;;;;-0.33;100.00;100977.28;6207684;23;20032;-74
2023/03/04 06:12:42;;;;;;;23.85;5.03;;;;;;;-0.33;100.00;100979.91;6210013;23;20095;-74
2023/03/04 06:15:09;;;;;;;22.27;4.32;;;;;;;-0.26;100.00;100986.56;6210810;23;20349;-74
2023/03/04 06:17:37;;;;;;;26.80;4.97;;;;;;;-0.27;100.00;100979.59;6209636;23;20024;-74
2023/03/04 06:20:08;;;;;;;26.60;5.97;;;;;;;-0.26;100.00;100982.16;6210632;23;20024;-74
2023/03/04 06:22:35;;;;;;;26.17;4.95;;;;;;;-0.23;100.00;100981.13;6209568;23;20024;-74
2023/03/04 06:25:01;;;;;;;25.27;4.75;;;;;;;-0.21;100.00;100984.53;6211300;23;20027;-74
2023/03/04 06:27:28;;;;;;;25.15;5.15;;;;;;;-0.16;100.00;100985.13;6207506;23;20023;-74
2023/03/04 06:29:55;;;;;;;25.23;5.68;;;;;;;-0.10;100.00;100983.94;6183997;23;20025;-74
2023/03/04 06:32:21;;;;;;;24.98;4.72;;;;;;;-0.15;100.00;100981.56;6210230;23;20348;-74
2023/03/04 06:34:48;;;;;;;21.13;5.05;;;;;;;-0.18;100.00;100984.38;6209971;23;20021;-74
2023/03/04 06:37:15;;;;;;;24.20;5.78;;;;;;;-0.17;100.00;100982.56;6210799;23;20020;-74
2023/03/04 06:39:41;;;;;;;24.55;4.65;;;;;;;-0.11;100.00;100985.72;6210363;23;20016;-75
2023/03/04 06:42:08;;;;;;;23.83;5.50;;;;;;;-0.07;100.00;100995.16;6210595;23;20454;-74
2023/03/04 06:44:34;;;;;;;27.42;5.68;;;;;;;-0.14;100.00;100988.53;6211683;23;20021;-74
2023/03/04 06:47:01;;;;;;;21.50;5.28;;;;;;;-0.12;100.00;100991.06;6210217;23;20020;-74
2023/03/04 06:49:28;;;;;;;26.40;5.43;;;;;;;-0.09;100.00;100990.91;6209789;23;20027;-74
2023/03/04 06:51:54;;;;;;;23.55;5.78;;;;;;;-0.06;100.00;100988.94;6210753;23;20017;-74
2023/03/04 06:54:20;;;;;;;28.90;5.45;;;;;;;-0.04;100.00;100995.00;6209300;23;20028;-74
2023/03/04 06:56:47;;;;;;;26.35;5.65;;;;;;;0.01;100.00;100992.94;6209134;23;20469;-74
2023/03/04 06:59:13;;;;;;;23.55;4.90;;;;;;;0.00;100.00;100991.25;6210207;23;20104;-74
2023/03/04 07:01:40;;;;;;;20.42;5.90;;;;;;;0.00;100.00;100985.97;6209442;23;20025;-74
2023/03/04 07:04:06;;;;;;;19.33;5.47;;;;;;;-0.04;100.00;100989.72;6209892;23;20109;-74
2023/03/04 07:06:33;;;;;;;22.92;6.28;;;;;;;-0.10;100.00;100994.50;6210811;23;20027;-74
2023/03/04 07:09:00;;;;;;;26.48;6.15;;;;;;;-0.02;100.00;100982.59;6208330;23;20405;-73
2023/03/04 07:11:26;;;;;;;24.85;5.97;;;;;;;-0.08;100.00;100990.84;6209766;23;20032;-75
2023/03/04 07:13:53;;;;;;;17.17;6.18;;;;;;;0.02;100.00;100993.81;6209890;23;20020;-72
2023/03/04 07:16:22;;;;;;;23.05;6.90;;;;;;;0.09;100.00;100995.19;6208537;23;20392;-73
2023/03/04 07:18:49;;;;;;;33.35;7.22;;;;;;;0.07;100.00;100999.69;6195882;23;20047;-74
2023/03/04 07:21:16;;;;;;;34.22;6.95;;;;;;;0.17;100.00;100994.75;6209262;23;20103;-73
2023/03/04 07:23:43;;;;;;;27.77;6.18;;;;;;;0.04;100.00;100998.06;6194818;23;20048;-73
2023/03/04 07:26:09;;;;;;;28.17;6.32;;;;;;;-0.10;100.00;101007.69;6207321;23;20403;-75
2023/03/04 08:51:48;;;;;;;24.13;3.88;;;;;;;0.90;100.00;100971.13;6186960;22;20067;-73
2023/03/04 08:54:14;;;;;;;13.52;4.07;;;;;;;0.91;100.00;100971.03;6210927;23;20104;-73
2023/03/04 08:56:41;;;;;;;24.10;5.18;;;;;;;0.79;100.00;100969.13;6185006;23;20040;-72
2023/03/04 08:59:07;;;;;;;14.88;3.60;;;;;;;0.98;100.00;100969.72;6210790;23;20044;-73
2023/03/04 09:01:34;;;;;;;14.98;4.35;;;;;;;1.14;100.00;100960.88;6211882;23;20095;-73
2023/03/04 09:04:00;;;;;;;16.08;3.75;;;;;;;1.00;100.00;100962.56;6212687;23;20100;-73
2023/03/04 09:06:27;;;;;;;14.30;3.40;;;;;;;0.97;100.00;100961.91;6210850;23;20070;-74
2023/03/04 09:08:53;;;;;;;12.77;4.10;;;;;;;0.96;100.00;100963.69;6210785;23;20031;-73
2023/03/04 09:11:20;;;;;;;12.57;3.10;;;;;;;0.89;100.00;100969.44;6211313;23;20031;-73
2023/03/04 09:13:47;;;;;;;25.75;4.28;;;;;;;0.95;100.00;100964.63;6212222;23;20019;-73
2023/03/04 09:16:14;;;;;;;12.25;3.60;;;;;;;1.00;100.00;100959.06;6188869;23;20083;-73
2023/03/04 09:18:41;;;;;;;20.02;4.18;;;;;;;0.91;100.00;100955.19;6209966;23;20012;-73
2023/03/04 09:21:08;;;;;;;14.35;4.45;;;;;;;1.07;100.00;100962.19;6212308;23;20096;-73
2023/03/04 09:23:36;;;;;;;14.27;3.53;;;;;;;1.01;100.00;100966.88;6211607;23;20044;-73
2023/03/04 09:26:23;;;;;;;16.15;4.32;;;;;;;1.18;100.00;100963.22;6210003;23;20331;-73
2023/03/04 09:28:56;;;;;;;13.77;4.00;;;;;;;1.32;100.00;100969.47;6180302;23;20520;-73
2023/03/04 09:31:23;;;;;;;13.85;3.67;;;;;;;1.31;100.00;100971.25;6206105;23;20020;-70
2023/03/04 09:33:50;;;;;;;13.45;3.47;;;;;;;1.28;100.00;100971.44;6208646;23;20056;-71
2023/03/04 09:36:17;;;;;;;13.85;3.53;;;;;;;1.29;100.00;100967.84;6208880;23;20020;-71
2023/03/04 09:44:04;;;;;;;;;;;;;;;1.19;100.00;100972.00;6221731;22;20012;-72
2023/03/04 09:46:36;;;;;;;23.05;4.63;;;;;;;1.29;100.00;100973.13;6240519;23;19923;-72
2023/03/04 09:49:03;;;;;;;19.27;5.03;;;;;;;1.25;100.00;100971.63;6241016;23;20025;-72
2023/03/04 09:51:53;;;;;;;14.80;3.70;;;;;;;1.23;100.00;100968.25;6240138;23;20039;-72
2023/03/04 09:54:36;;;;;;;19.50;3.55;;;;;;;1.22;100.00;100972.66;6240533;23;20016;-71
2023/03/04 09:57:22;;;;;;;22.00;3.13;;;;;;;1.33;100.00;100977.28;6238820;23;20012;-71
2023/03/04 10:00:18;;;;;;;17.95;3.25;;;;;;;1.33;100.00;100972.00;6239929;23;20005;-71
2023/03/04 10:03:00;;;;;;;19.27;2.95;;;;;;;1.38;100.00;100969.09;6240512;23;20043;-71
2023/03/04 10:05:29;;;;;;;12.35;2.45;;;;;;;1.38;100.00;100963.81;6241446;23;20019;-72
2023/03/04 10:07:59;;;;;;;14.57;2.78;;;;;;;1.46;100.00;100967.66;6239873;23;20012;-71
2023/03/04 10:10:31;;;;;;;22.05;2.92;;;;;;;1.43;100.00;100975.78;6239244;23;20028;-71
2023/03/04 10:13:01;;;;;;;17.65;2.78;;;;;;;1.41;100.00;100961.81;6238834;23;20011;-69
2023/03/04 10:15:42;;;;;;;16.05;2.92;;;;;;;1.47;100.00;100964.09;6238280;23;20028;-70
2023/03/04 10:18:26;;;;;;;15.75;3.05;;;;;;;1.47;100.00;100965.84;6238173;23;20028;-71
2023/03/04 10:20:59;;;;;;;22.20;3.15;;;;;;;1.60;100.00;100968.59;6236406;23;20017;-70
2023/03/04 10:23:27;;;;;;;19.52;3.25;;;;;;;1.59;100.00;100965.09;6238833;23;20015;-71
2023/03/04 10:25:55;;;;;;;27.25;4.18;;;;;;;1.56;100.00;100960.00;6238297;23;20020;-70
2023/03/04 10:33:51;;;;;;;20.08;3.80;;;;;;;1.82;100.00;100968.06;6208892;23;20024;-71
2023/03/04 10:36:29;;;;;;;29.63;4.70;;;;;;;1.73;100.00;100973.03;6209622;23;20039;-73
2023/03/04 10:39:09;;;;;;;19.30;2.95;;;;;;;1.78;100.00;100964.78;6208718;23;20032;-70
2023/03/04 10:41:40;;;;;;;21.48;3.53;;;;;;;1.70;100.00;100964.44;6209067;23;20020;-70
2023/03/04 10:44:07;;;;;;;25.33;4.30;;;;;;;1.74;100.00;100963.28;6209129;23;20075;-68
2023/03/04 10:46:46;;;;;;;22.83;4.13;;;;;;;1.87;100.00;100964.22;6186760;22;20021;-68
2023/03/04 10:49:17;;;;;;;24.25;4.05;;;;;;;1.85;100.00;100966.09;6237598;23;20025;-69
2023/03/04 10:51:50;;;;;;;26.50;4.03;;;;;;;1.87;100.00;100968.66;6238924;23;20008;-69
2023/03/04 10:59:31;;;;;;;29.05;4.88;;;;;;;2.27;100.00;100959.03;6180162;23;20028;-70
2023/03/04 11:02:12;;;;;;;37.33;4.53;;;;;;;2.37;100.00;100962.75;6180948;23;20053;-70
2023/03/04 11:04:39;;;;;;;29.05;4.00;;;;;;;2.27;100.00;100966.97;6178578;23;20040;-71
2023/03/04 11:07:10;;;;;;;30.65;4.10;;;;;;;2.24;100.00;100963.66;6179690;23;20022;-70
2023/03/04 11:09:36;;;;;;;28.17;4.80;;;;;;;2.22;100.00;100971.69;6166573;23;20081;-70
2023/03/04 11:12:10;;;;;;;27.30;5.22;;;;;;;2.25;100.00;100965.34;6165773;23;20192;-70
2023/03/04 11:14:45;;;;;;;29.02;4.57;;;;;;;2.29;100.00;100956.25;6179319;23;20036;-70
2023/03/04 11:17:38;;;;;;;29.23;4.25;;;;;;;2.43;100.00;100964.97;6179970;23;20013;-70
2023/03/04 11:20:28;;;;;;;31.67;5.10;;;;;;;2.30;100.00;100958.78;6181905;23;20029;-70
2023/03/04 11:22:57;;;;;;;28.00;3.95;;;;;;;2.34;100.00;100970.03;6171886;23;20029;-70
2023/03/04 11:25:28;;;;;;;31.67;4.35;;;;;;;2.22;100.00;100962.91;6181636;23;20024;-70
2023/03/04 11:28:01;;;;;;;41.35;5.03;;;;;;;2.17;100.00;100966.72;6181405;23;20013;-70
2023/03/04 11:30:33;;;;;;;28.13;3.92;;;;;;;2.10;100.00;100969.88;6182048;23;20033;-70
2023/03/04 11:33:15;;;;;;;30.38;4.20;;;;;;;2.06;100.00;100981.56;6167850;23;20138;-71
2023/03/04 11:35:49;;;;;;;25.88;4.38;;;;;;;2.19;100.00;100980.69;6174856;23;20021;-71
2023/03/04 11:38:19;;;;;;;28.10;4.18;;;;;;;2.13;100.00;100982.88;6180939;23;20009;-70
2023/03/04 11:40:56;;;;;;;23.52;4.50;;;;;;;1.99;100.00;100980.28;6181352;23;20041;-70
2023/03/04 11:43:36;;;;;;;35.58;4.88;;;;;;;1.99;100.00;100988.22;6181120;23;20064;-71
2023/03/04 11:46:28;;;;;;;27.30;4.53;;;;;;;2.11;100.00;100982.13;6181739;23;20048;-71
2023/03/04 11:49:39;;;;;;;30.20;4.47;;;;;;;2.12;100.00;100984.66;6181263;23;20009;-70
2023/03/04 11:52:18;;;;;;;31.70;4.38;;;;;;;2.23;100.00;100975.19;6035616;23;20031;-71
2023/03/04 11:55:03;;;;;;;37.97;5.72;;;;;;;2.22;100.00;100979.63;6035123;23;20023;-71
2023/03/04 11:58:09;;;;;;;28.13;5.43;;;;;;;2.30;100.00;100979.97;6041533;23;20011;-70
2023/03/04 12:00:43;;;;;;;32.05;5.72;;;;;;;2.16;100.00;100974.72;6043699;23;20063;-71
2023/03/04 12:03:34;;;;;;;35.05;4.63;;;;;;;2.29;100.00;100965.03;6063560;23;20011;-71
2023/03/04 12:06:38;;;;;;;33.47;5.22;;;;;;;2.25;100.00;100968.84;6063300;23;20035;-71
2023/03/04 12:09:17;;;;;;;37.63;5.53;;;;;;;2.30;100.00;100973.84;6063517;23;20066;-70
2023/03/04 12:12:04;;;;;;;32.40;5.85;;;;;;;2.23;100.00;100981.31;6064317;23;20012;-70
2023/03/04 12:14:40;;;;;;;35.42;5.15;;;;;;;2.05;100.00;100966.66;6063232;23;20109;-70
2023/03/04 12:17:22;;;;;;;36.38;5.43;;;;;;;2.26;100.00;100975.00;6062362;23;20066;-71
2023/03/04 12:20:07;;;;;;;;;;;;;;;2.27;100.00;100974.91;6040490;23;20034;-71
2023/03/04 12:22:53;;;;;;;32.30;4.40;;;;;;;2.32;100.00;100972.78;6063194;23;19906;-71
2023/03/04 12:25:42;;;;;;;32.90;4.07;;;;;;;2.43;100.00;100974.72;6091421;23;20013;-71
2023/03/04 12:28:39;;;;;;;24.80;4.57;;;;;;;2.33;100.00;100963.03;6210765;23;20028;-70
2023/03/04 12:31:24;;;;;;;31.85;5.43;;;;;;;2.37;100.00;100970.72;6210137;23;20009;-71
2023/03/04 12:34:02;;;;;;;46.20;5.10;;;;;;;2.43;100.00;100970.28;6210904;23;20012;-70
2023/03/04 12:36:49;;;;;;;38.70;4.68;;;;;;;2.36;100.00;100970.78;6209311;23;20036;-71
2023/03/04 12:39:53;;;;;;;34.38;4.53;;;;;;;2.42;100.00;100965.94;6208233;23;20057;-69
2023/03/04 12:42:44;;;;;;;33.55;4.18;;;;;;;2.38;100.00;100969.75;6153805;23;20013;-70
2023/03/04 12:45:29;;;;;;;29.40;4.60;;;;;;;2.30;100.00;100968.53;6210408;23;20061;-71
2023/03/04 12:48:18;;;;;;;32.05;5.90;;;;;;;2.22;100.00;100963.75;6194428;23;20009;-69
2023/03/04 12:50:52;;;;;;;27.15;4.25;;;;;;;2.31;100.00;100963.16;6206276;23;20009;-71
2023/03/04 12:53:41;;;;;;;38.60;7.68;;;;;;;2.15;100.00;100973.88;6181303;23;20028;-72
2023/03/04 12:56:22;;;;;;;34.13;4.57;;;;;;;2.23;100.00;100976.03;6181013;23;20025;-72
2023/03/04 12:58:48;;;;;;;41.88;7.47;;;;;;;2.18;100.00;100970.19;6179028;23;20027;-73
2023/03/04 13:01:25;;;;;;;30.60;3.95;;;;;;;2.26;100.00;100969.69;6152587;23;20021;-72
2023/03/04 13:03:52;;;;;;;35.30;4.32;;;;;;;2.28;100.00;100960.72;6181500;23;20100;-73
2023/03/04 13:06:40;;;;;;;19.42;3.60;;;;;;;2.30;100.00;100963.25;6179759;23;20099;-73